Pagina principale
METAR-TAF:

METAR-TAF

Aeroporti :

Aeroporto di Friedrichshafen

Friedrichshafen, Germania

latitudine: 47-40N, longitudine: 009-31E, altezza: 416 m

Osservazione

Il bollettino è stato emesso 19 minuti fa, alle 08:20 UTC
Vento 3 kt da direzioni variabili
Temperature 22°C
Umidità 69%
Pressione 1022 hPa
Visibilità 10 km o più
nessuna nube inferiore a 1500 m e nessun cumulonembo

METAR: EDNY 180820Z VRB03KT CAVOK 22/16 Q1022

Ora: 10:39 (08:39 UTC)

Previsione

Il bollettino è stato emesso 3 ore e 39 minuti fa, alle 05:00 UTC
Previsione valida dal 18 alle 06 UTC al 18 alle 15 UTC
Vento 5 kt da nord-est
Visibilità 10 km o più
Poco nuvoloso ad un'altezza di 3000 ft
Evoluzione graduale
dal 18 alle 09 UTC al 18 alle 12 UTC
Vento 5 kt da ovest/sud-ovest

TAF: EDNY 180500Z 1806/1815 05005KT 9999 FEW030 BECMG 1809/1812 24005KT

Osservazioni e previsioni meteorologiche di più di 4000 aeroporti (messaggi METAR e TAF).

Le stazioni disponibili sono rappresentate dai dischi gialli e rossi sulla carta.

Puntare il mouse per vedere il nome della stazione.

Clicca sopra per visualizzare le osservazioni e previsioni meteorologiche.

Per cambiare la mappa : fare clic sui pulsanti verdi con una croce nera per ingrandire, il pulsante verde con un trattino per diminuire, o sulla freccia verde per le mappe adiacenti.


METAR-TAF: